Flight Track Log - Related Links

Times and Time Zones

All times are in EST time to prevent confusion due to time zone crossing. See the SWA717 flight status page for this flight to view local times or setup timezone preferences in your user account.

Time Position Orientation Groundspeed Altitude Reporting Facility
EST Latitude Longitude Course Direction KTS MPH feet Rate Location/Type
Sun 09:58:26 AM 33.5508 -86.7806 229° Southwest 162 186 1,700  Level Atlanta Center
Sun 09:59:02 AM 33.5314 -86.8075 229° Southwest 170 196 3,100 3,141 Climbing Atlanta Center
Sun 10:01:16 AM 33.4419 -86.9358 230° Southwest 227 261 10,600 3,184 Climbing Memphis Center
Sun 10:02:18 AM 33.3844 -87.0197 231° Southwest 274 315 13,500 3,463 Climbing Memphis Center
Sun 10:03:19 AM 33.3192 -87.1178 231° Southwest 349 402 17,700 3,463 Climbing Memphis Center
Sun 10:04:21 AM 33.2544 -87.2133 231° Southwest 365 420 20,600 2,732 Climbing Memphis Center
Sun 10:05:22 AM 33.1825 -87.3181 231° Southwest 395 455 23,300 2,656 Climbing Memphis Center
Sun 10:06:23 AM 33.1078 -87.4292 231° Southwest 420 483 26,000 2,537 Climbing Memphis Center
Sun 10:07:25 AM 33.0386 -87.5481 235° Southwest 433 498 28,500 2,098 Climbing Memphis Center
Sun 10:08:26 AM 32.9939 -87.6850 249° West 439 505 30,300 2,195 Climbing Memphis Center
Sun 10:09:28 AM 32.9369 -87.8547 248° West 455 524 33,000 1,805 Climbing Memphis Center
Sun 10:10:29 AM 32.8939 -87.9833 248° West 456 525 34,000 488 Climbing Memphis Center
Sun 10:11:31 AM 32.8475 -88.1183 248° West 448 516 34,000  Level Memphis Center
Sun 10:12:32 AM 32.8017 -88.2553 248° West 447 514 34,000  Level Memphis Center
Sun 10:13:34 AM 32.7550 -88.3903 248° West 445 512 34,000 829 Level Memphis Center
Sun 10:14:35 AM 32.7003 -88.5528 248° West 444 511 35,700 1,869 Climbing Memphis Center
Sun 10:15:36 AM 32.6531 -88.6886 248° West 446 513 37,800 1,415 Climbing Memphis Center
Sun 10:16:38 AM 32.6069 -88.8189 247° West 437 503 38,600 1,073 Climbing Memphis Center
Sun 10:17:39 AM 32.5619 -88.9500 248° West 433 498 40,000 683 Climbing Memphis Center
Sun 10:18:41 AM 32.5189 -89.0742 248° West 418 481 40,000  Level Memphis Center
Sun 10:19:42 AM 32.4758 -89.1975 248° West 409 471 40,000  Level Memphis Center
Sun 10:20:44 AM 32.4322 -89.3197 247° West 405 466 40,000  Level Memphis Center
Sun 10:21:45 AM 32.3894 -89.4431 248° West 405 466 40,000  Level Memphis Center
Sun 10:22:47 AM 32.3367 -89.5906 247° West 406 467 40,000  Level Memphis Center
Sun 10:23:48 AM 32.2931 -89.7142 247° West 407 468 40,000  Level Memphis Center
Sun 10:24:50 AM 32.2492 -89.8361 247° West 406 467 40,000  Level Memphis Center
Sun 10:25:51 AM 32.2050 -89.9567 247° West 402 463 40,000  Level Memphis Center
Sun 10:26:53 AM 32.1622 -90.0772 247° West 401 461 40,000  Level Memphis Center
Sun 10:27:54 AM 32.1186 -90.1967 247° West 398 458 40,000  Level Memphis Center
Sun 10:28:56 AM 32.0764 -90.3153 247° West 395 455 40,000  Level Memphis Center
Sun 10:29:57 AM 32.0328 -90.4333 246° West 394 453 40,000  Level Memphis Center
Sun 10:30:27 AM 32.0042 -90.5131 247° West 395 455 40,000  Level Houston Center
Sun 10:31:29 AM 31.9611 -90.6317 247° West 395 455 40,000  Level Houston Center
Sun 10:32:31 AM 31.9172 -90.7506 247° West 397 457 40,000  Level Houston Center
Sun 10:33:33 AM 31.8747 -90.8642 246° West 399 459 40,000  Level Houston Center
Sun 10:34:34 AM 31.8294 -90.9847 246° West 402 463 40,000  Level Houston Center
Sun 10:35:36 AM 31.7761 -91.1294 247° West 404 465 40,000 -387 Level Houston Center
Sun 10:36:38 AM 31.7317 -91.2511 247° West 405 466 39,200 -829 Descending Houston Center
Sun 10:37:39 AM 31.6839 -91.3758 246° West 416 479 38,300 -585 Descending Houston Center
Sun 10:38:41 AM 31.6375 -91.5031 247° West 424 488 38,000 -145 Descending Houston Center
Sun 10:39:43 AM 31.5897 -91.6272 246° West 419 482 38,000  Level Houston Center
Sun 10:40:44 AM 31.5419 -91.7528 246° West 421 484 38,000  Level Houston Center
Sun 10:41:46 AM 31.4939 -91.8772 246° West 420 483 38,000  Level Houston Center
Sun 10:42:48 AM 31.4375 -92.0292 247° West 424 488 38,000  Level Houston Center
Sun 10:43:50 AM 31.3928 -92.1439 245° Southwest 424 488 38,000  Level Houston Center
Sun 10:44:51 AM 31.3456 -92.2686 246° West 423 487 38,000  Level Houston Center
Sun 10:45:53 AM 31.2972 -92.3944 246° West 423 487 38,000  Level Houston Center
Sun 10:46:55 AM 31.2375 -92.5450 245° Southwest 426 490 38,000  Level Houston Center
Sun 10:47:57 AM 31.1939 -92.6733 248° West 426 490 38,000  Level Houston Center
Sun 10:48:58 AM 31.1481 -92.7978 247° West 420 483 38,000 -49 Level Houston Center
Sun 10:50:00 AM 31.1017 -92.9217 246° West 419 482 37,900 -919 Descending Houston Center
Sun 10:51:02 AM 31.0544 -93.0472 246° West 423 487 36,100 -1,306 Descending Houston Center
Sun 10:52:04 AM 31.0067 -93.1742 246° West 427 491 35,200 -927 Descending Houston Center
Sun 10:53:05 AM 30.9492 -93.3281 246° West 433 498 34,200 -976 Descending Houston Center
Sun 10:54:07 AM 30.9000 -93.4572 246° West 438 504 33,200 -968 Descending Houston Center
Sun 10:55:09 AM 30.8542 -93.5817 247° West 427 491 32,200 -968 Descending Houston Center
Sun 10:56:11 AM 30.8067 -93.7042 246° West 420 483 31,200 -1,024 Descending Houston Center
Sun 10:57:12 AM 30.7619 -93.8258 247° West 414 476 30,100 -1,024 Descending Houston Center
Sun 10:58:14 AM 30.7158 -93.9456 246° West 410 472 29,100 -1,016 Descending Houston Center
Sun 10:59:16 AM 30.6617 -94.0872 246° West 403 464 28,000 -1,210 Descending Houston Center
Sun 11:00:18 AM 30.6153 -94.2083 246° West 411 473 26,600 -2,067 Descending Houston Center
Sun 11:01:15 AM 30.5703 -94.3228 245° Southwest 410 472 23,900 -2,656 Descending Houston Center
Sun 11:01:19 AM 30.5703 -94.3269 270° West 406 467 23,900 -2,400 Level Houston Center
Sun 11:01:40 AM 30.5486 -94.3792 244° Southwest 403 464 22,900 -2,323 Descending Houston Center
Sun 11:02:21 AM 30.5253 -94.4422 247° West 399 459 21,500 -2,262 Descending Houston Center
Sun 11:02:41 AM 30.5069 -94.4914 247° West 385 443 20,600 -2,419 Descending Houston Center
Sun 11:03:23 AM 30.4667 -94.5642 237° Southwest 377 434 19,000 -2,262 Descending Houston Center
Sun 11:03:42 AM 30.4492 -94.5886 230° Southwest 367 422 18,300 -2,032 Descending Houston Center
Sun 11:04:25 AM 30.4067 -94.6547 233° Southwest 365 420 16,900 -2,262 Descending Houston Center
Sun 11:04:43 AM 30.3833 -94.6892 232° Southwest 363 418 16,000 -2,459 Descending Houston Center
Sun 11:05:26 AM 30.3467 -94.7478 234° Southwest 362 417 14,400 -2,419 Descending Houston Center
Sun 11:05:45 AM 30.3231 -94.7842 233° Southwest 355 409 13,500 -1,258 Descending Houston Center
Sun 11:06:28 AM 30.2886 -94.8367 233° Southwest 351 404 13,100 -492 Descending Houston Center
Sun 11:06:46 AM 30.2664 -94.8711 233° Southwest 334 384 13,000 -774 Descending Houston Center
Sun 11:07:30 AM 30.2344 -94.9208 233° Southwest 333 383 12,300 -1,075 Descending Houston Center
Sun 11:07:53 AM 30.2058 -94.9658 234° Southwest 325 374 11,800 -871 Descending Houston Center
Sun 11:08:32 AM 30.1803 -95.0033 232° Southwest 324 373 11,400 -984 Descending Houston Center
Sun 11:08:54 AM 30.1508 -95.0500 234° Southwest 324 373 10,800 -984 Descending Houston Center
Sun 11:09:33 AM 30.1172 -95.0778 216° Southwest 333 383 10,400 -689 Descending Houston Center
Sun 11:09:55 AM 30.0692 -95.0989 201° Southwest 334 384 10,100 -290 Descending Houston Center
Sun 11:10:35 AM 30.0144 -95.1236 201° Southwest 335 386 10,100  Level Houston Center
Sun 11:10:56 AM 29.9844 -95.1358 199° South 327 376 10,100 -97 Level Houston Center
Sun 11:11:37 AM 29.9314 -95.1578 200° South 324 373 10,000 -295 Descending Houston Center
Sun 11:11:57 AM 29.9019 -95.1725 203° Southwest 268 308 9,800 -484 Descending Houston Center
Sun 11:12:39 AM 29.8633 -95.1875 199° South 274 315 9,500 -590 Descending Houston Center
Sun 11:12:58 AM 29.8350 -95.2000 201° Southwest 239 275 9,200 -871 Descending Houston Center
Sun 11:13:41 AM 29.8014 -95.2139 200° South 246 283 8,600 -968 Descending Houston Center
Sun 11:14:00 AM 29.7744 -95.2264 202° Southwest 234 269 8,200 -1,082 Descending Houston Center
Sun 11:14:42 AM 29.7411 -95.2100 157° South 241 277 7,500 -1,279 Descending Houston Center
Sun 11:15:01 AM 29.7181 -95.1853 137° Southeast 256 295 6,900 -1,950 Descending Houston Center
Sun 11:16:02 AM 29.6644 -95.1269 137° Southeast 236 272 4,900 -1,714 Descending Houston Center
Sun 11:16:46 AM 29.6369 -95.1053 146° Southeast 240 276 3,900 -1,475 Descending Houston Center
Sun 11:17:03 AM 29.6150 -95.1161 203° Southwest 186 214 3,400 -1,355 Descending Houston Center
Sun 11:17:48 AM 29.5942 -95.1372 221° Southwest 205 236 2,500 -1,180 Descending Houston Center
Sun 11:18:04 AM 29.5836 -95.1608 243° Southwest 178 205 2,200 -387 Descending Houston Center
Sun 11:18:50 AM 29.5831 -95.1908 269° West 182 209 2,100 -492 Descending Houston Center
Sun 11:19:05 AM 29.5881 -95.2083 288° West 140 161 1,700 -984 Descending Houston Center
Sun 11:19:51 AM 29.6022 -95.2289 308° West 149 171 1,100 -885 Descending Houston Center
Sun 11:20:06 AM 29.6122 -95.2414 313° West 131 151 800 -774 Descending Houston Center
Sun 11:20:53 AM 29.6286 -95.2592 317° Northwest 134 154 300 -638 Descending Houston Center

Login

Don't have an account? Register now (free) for customized features, flight alerts, and more!